Time;durP1;ratioP1;P1;durP2;ratioP2;P2;SDS_P1;SDS_P2;PMS_P1;PMS_P2;Temp;Humidity;BMP_temperature;BMP_pressure;BME280_temperature;BME280_humidity;BME280_pressure;Samples;Min_cycle;Max_cycle;Signal;HPM_P1;HPM_P2
2021/06/02 00:00:15;;;;;;;4.60;4.20;;;6.70;1.40;;;8.42;82.07;95242.97;645457;212;31702;-68
2021/06/02 00:02:56;;;;;;;4.10;3.80;;;6.60;1.40;;;8.23;85.33;95240.58;646002;216;31931;-69
2021/06/02 00:05:38;;;;;;;4.62;4.10;;;6.50;1.40;;;8.10;88.26;95239.89;618199;226;32064;-68
2021/06/02 00:08:20;;;;;;;4.70;4.30;;;6.60;1.40;;;8.07;89.16;95243.07;646911;216;33522;-69
2021/06/02 00:11:06;;;;;;;4.78;4.28;;;6.60;1.40;;;8.05;86.59;95243.69;646734;216;31572;-71
2021/06/02 00:13:48;;;;;;;4.80;4.30;;;6.40;1.40;;;8.06;86.83;95242.12;645680;216;42654;-70
2021/06/02 00:16:30;;;;;;;4.78;4.37;;;6.40;1.40;;;7.96;88.29;95237.34;645477;212;31699;-69
2021/06/02 00:19:12;;;;;;;4.15;3.83;;;6.30;1.40;;;7.95;86.98;95234.87;646317;216;31867;-70
2021/06/02 00:21:53;;;;;;;4.62;4.22;;;6.20;1.40;;;7.86;88.46;95233.16;632279;221;32101;-69
2021/06/02 00:24:35;;;;;;;5.10;4.28;;;6.20;1.40;;;7.81;87.90;95232.09;619554;222;32552;-69
2021/06/02 00:27:16;;;;;;;4.62;4.22;;;6.20;1.40;;;7.77;88.11;95229.01;646931;212;32618;-70
2021/06/02 00:29:58;;;;;;;5.00;4.30;;;6.10;1.40;;;7.72;88.16;95227.30;646043;216;31603;-68
2021/06/02 00:32:40;;;;;;;4.97;4.07;;;6.00;1.40;;;7.65;87.33;95221.47;644819;216;31977;-69
2021/06/02 00:35:54;;;;;;;4.90;4.20;;;5.90;1.40;;;7.56;89.62;95223.28;647381;212;31810;-70
2021/06/02 00:38:36;;;;;;;4.80;4.05;;;5.90;1.40;;;7.54;89.32;95226.60;645669;212;31584;-68
2021/06/02 00:41:17;;;;;;;5.30;4.80;;;5.80;1.40;;;7.51;90.12;95225.94;645915;216;31570;-68
2021/06/02 00:43:59;;;;;;;5.43;5.03;;;5.90;1.40;;;7.47;89.20;95224.38;647288;216;31775;-70
2021/06/02 00:46:43;;;;;;;4.95;4.55;;;5.80;1.40;;;;;;646129;216;31621;-71
2021/06/02 00:49:24;;;;;;;4.60;4.20;;;5.80;1.40;;;;;;646065;212;32190;-69
2021/06/02 00:52:06;;;;;;;5.65;5.03;;;5.80;1.40;;;;;;619028;226;31896;-69
2021/06/02 00:54:50;;;;;;;4.68;4.28;;;5.70;1.40;;;;;;646966;212;31688;-71
2021/06/02 00:57:31;;;;;;;5.60;4.35;;;5.70;1.40;;;;;;647001;216;31572;-70
2021/06/02 01:00:12;;;;;;;5.20;4.70;;;5.70;1.40;;;;;;646375;216;31581;-69
2021/06/02 01:02:53;;;;;;;5.28;4.50;;;5.80;1.40;;;;;;645352;216;31578;-72
2021/06/02 01:05:34;;;;;;;5.15;4.65;;;5.90;1.40;;;;;;647389;216;31559;-70
2021/06/02 01:08:15;;;;;;;5.15;4.65;;;5.90;1.40;;;;;;646398;212;31585;-71
2021/06/02 01:10:56;;;;;;;5.15;4.65;;;5.80;1.40;;;;;;647367;216;31717;-69
2021/06/02 01:13:43;;;;;;;4.97;4.57;;;5.70;1.40;;;;;;617281;226;32027;-91
2021/06/02 01:16:27;;;;;;;5.25;4.78;;;5.60;1.40;;;;;;647611;214;31833;-71
2021/06/02 01:19:11;;;;;;;5.40;4.90;;;5.60;1.40;;;;;;645780;216;42802;-71
2021/06/02 01:21:54;;;;;;;5.07;4.68;;;5.90;1.40;;;;;;647380;212;31576;-69
2021/06/02 01:24:35;;;;;;;5.43;4.93;;;5.90;1.40;;;;;;646692;216;31565;-70
2021/06/02 01:27:16;;;;;;;5.30;4.80;;;5.80;1.40;;;;;;645632;212;31565;-70
2021/06/02 01:29:57;;;;;;;5.10;4.70;;;5.70;1.40;;;;;;646284;212;31545;-69
2021/06/02 01:32:56;;;;;;;5.22;4.78;;;5.40;1.40;;;;;;645482;216;31578;-69
2021/06/02 01:35:56;;;;;;;4.90;4.50;;;5.30;1.40;;;7.05;92.65;95217.39;647456;212;31606;-69
2021/06/02 01:39:08;;;;;;;5.22;4.78;;;5.40;1.40;;;6.97;93.44;95216.95;645056;212;32137;-69
2021/06/02 01:41:58;;;;;;;4.47;4.07;;;5.40;1.40;;;-143.44;100.00;122422.95;647306;216;32108;-69
2021/06/02 01:44:46;;;;;;;5.20;4.80;;;5.50;1.40;;;;;;646567;216;31575;-69
2021/06/02 01:47:50;;;;;;;5.50;4.80;;;5.40;1.40;;;;;;646914;216;31618;-69
2021/06/02 01:50:50;;;;;;;5.80;5.30;;;5.20;1.40;;;;;;646233;216;31956;-69
2021/06/02 01:53:47;;;;;;;6.10;5.50;;;5.20;1.40;;;;;;641906;215;42246;-69
2021/06/02 01:56:36;;;;;;;5.50;5.00;;;5.20;1.40;;;;;;646430;216;31619;-69
2021/06/02 01:59:28;;;;;;;5.22;4.82;;;5.30;1.40;;;;;;646490;216;31536;-71
2021/06/02 02:02:26;;;;;;;5.40;4.90;;;5.50;1.40;;;;;;647463;216;31587;-71
2021/06/02 02:05:16;;;;;;;5.60;5.10;;;5.50;1.40;;;;;;645404;216;31582;-71
2021/06/02 02:08:04;;;;;;;7.57;5.30;;;5.50;1.40;;;;;;647244;216;31571;-71
2021/06/02 02:10:49;;;;;;;5.83;5.33;;;5.30;1.40;;;;;;646438;216;31560;-70
2021/06/02 02:13:51;;;;;;;5.45;4.95;;;5.30;1.40;;;;;;648038;216;31535;-68
2021/06/02 02:16:38;;;;;;;5.22;4.82;;;5.50;1.40;;;;;;646257;212;31557;-70
2021/06/02 02:19:25;;;;;;;5.60;5.10;;;5.50;1.40;;;;;;646178;212;31564;-71
2021/06/02 02:22:06;;;;;;;5.70;5.10;;;5.40;1.40;;;;;;647909;216;31586;-71
2021/06/02 02:24:48;;;;;;;6.15;5.55;;;5.20;1.40;;;;;;646631;212;31568;-69
2021/06/02 02:27:35;;;;;;;6.35;5.18;;;5.20;1.40;;;;;;646811;212;32150;-72
2021/06/02 02:30:20;;;;;;;5.75;5.25;;;5.20;1.40;;;;;;646549;212;31703;-68
2021/06/02 02:36:15;;;;;;;6.25;5.75;;;5.10;1.40;;;-143.44;100.00;122422.95;645718;216;31566;-70
2021/06/02 02:38:57;;;;;;;6.20;5.60;;;5.10;1.40;;;;;;647147;216;31916;-70
2021/06/02 02:41:41;;;;;;;5.50;5.00;;;5.10;1.40;;;;;;644885;215;31581;-71
2021/06/02 02:44:26;;;;;;;6.30;5.70;;;5.00;1.40;;;;;;643123;213;32132;-69
2021/06/02 02:47:07;;;;;;;6.12;5.40;;;4.90;1.40;;;;;;646048;216;31894;-70
2021/06/02 02:52:26;;;;;;;6.10;5.50;;;5.00;1.40;;;;;;630749;221;31712;-69
2021/06/02 02:55:16;;;;;;;5.75;5.25;;;4.80;1.40;;;;;;646861;216;31579;-71
2021/06/02 02:58:21;;;;;;;5.40;4.90;;;4.70;1.40;;;;;;647363;212;31535;-69
2021/06/02 03:01:05;;;;;;;4.90;4.50;;;4.70;1.40;;;;;;646226;216;31546;-69
2021/06/02 03:03:48;;;;;;;5.65;5.12;;;4.60;1.40;;;;;;646584;215;31822;-69
2021/06/02 03:06:29;;;;;;;5.90;5.30;;;4.60;1.40;;;;;;645911;216;31597;-69
2021/06/02 03:11:53;;;;;;;5.75;5.15;;;4.60;1.40;;;;;;645034;216;31801;-69
2021/06/02 03:14:38;;;;;;;5.93;5.32;;;4.70;1.40;;;;;;641224;212;31720;-70
2021/06/02 03:17:27;;;;;;;6.40;5.70;;;4.60;1.40;;;;;;632072;221;31710;-68
2021/06/02 03:20:19;;;;;;;5.90;5.50;;;4.60;1.40;;;;;;646056;216;42715;-69
2021/06/02 03:23:10;;;;;;;6.53;5.93;;;4.80;1.40;;;;;;644888;216;31600;-69
2021/06/02 03:25:56;;;;;;;6.32;5.82;;;4.80;1.40;;;;;;646820;212;31585;-69
2021/06/02 03:29:00;;;;;;;6.25;5.65;;;4.80;1.40;;;;;;646178;212;31587;-69
2021/06/02 03:32:01;;;;;;;6.50;5.85;;;4.90;1.40;;;;;;646514;216;31619;-69
2021/06/02 03:36:13;;;;;;;5.80;5.30;;;4.90;1.40;;;6.44;99.59;95251.67;647349;216;42348;-71
2021/06/02 03:38:57;;;;;;;6.70;6.10;;;4.90;1.40;;;-143.44;100.00;122422.95;645301;216;32243;-69
2021/06/02 03:41:47;;;;;;;6.70;6.00;;;4.90;1.40;;;;;;645756;212;31515;-70
2021/06/02 03:47:35;;;;;;;7.35;6.65;;;4.90;1.40;;;;;;647302;216;31549;-69
2021/06/02 03:50:17;;;;;;;7.00;6.30;;;4.90;1.40;;;;;;646516;212;32227;-71
2021/06/02 03:53:17;;;;;;;7.10;6.40;;;5.00;1.40;;;;;;618927;222;31909;-69
2021/06/02 03:56:06;;;;;;;6.70;6.10;;;5.00;1.40;;;;;;615769;226;32227;-71
2021/06/02 03:58:53;;;;;;;7.43;6.57;;;5.00;1.40;;;;;;647076;216;31548;-71
2021/06/02 04:01:41;;;;;;;6.30;5.80;;;5.00;1.40;;;;;;645842;212;31567;-70
2021/06/02 04:04:33;;;;;;;7.55;6.10;;;5.10;1.40;;;;;;619656;225;31902;-69
2021/06/02 04:07:19;;;;;;;6.30;5.70;;;5.10;1.40;;;;;;646223;212;31568;-72
2021/06/02 04:10:05;;;;;;;6.20;5.70;;;5.20;1.40;;;;;;645780;212;31550;-71
2021/06/02 04:12:50;;;;;;;6.35;5.80;;;5.30;1.40;;;;;;646819;216;31673;-71
2021/06/02 04:15:31;;;;;;;7.22;6.10;;;5.40;1.40;;;;;;647114;216;31660;-70
2021/06/02 04:18:12;;;;;;;6.00;5.18;;;5.50;1.40;;;;;;647306;216;32420;-70
2021/06/02 04:20:53;;;;;;;6.10;5.60;;;5.60;1.40;;;;;;646447;216;32773;-69
2021/06/02 04:23:34;;;;;;;5.65;5.20;;;5.80;1.40;;;;;;645655;216;31660;-70
2021/06/02 04:26:15;;;;;;;6.12;5.53;;;5.90;1.40;;;;;;646802;216;31757;-72
2021/06/02 04:28:56;;;;;;;6.45;5.85;;;6.00;1.40;;;;;;646120;216;32080;-72
2021/06/02 04:31:38;;;;;;;6.50;5.90;;;6.10;1.40;;;;;;645912;216;31586;-69
2021/06/02 04:35:51;;;;;;;5.90;5.40;;;6.10;1.40;;;7.84;92.27;95287.11;646926;212;32180;-69
2021/06/02 04:38:33;;;;;;;8.57;5.60;;;6.10;1.40;;;8.01;90.83;95294.83;646210;216;32114;-70
2021/06/02 04:43:52;;;;;;;6.80;6.10;;;6.40;1.40;;;8.09;92.23;95296.02;645309;216;31591;-69
2021/06/02 04:46:33;;;;;;;6.62;6.03;;;6.40;1.40;;;8.17;94.22;95296.16;647468;216;31532;-69
2021/06/02 04:49:15;;;;;;;6.00;5.50;;;6.60;1.40;;;8.31;92.82;95293.06;619932;226;32059;-68
2021/06/02 04:52:02;;;;;;;6.30;5.70;;;6.70;1.40;;;8.53;90.10;95298.49;645179;216;32656;-70
2021/06/02 04:54:58;;;;;;;6.82;6.22;;;6.80;1.40;;;8.62;91.52;95299.83;646182;216;31602;-70
2021/06/02 04:58:08;;;;;;;5.90;5.40;;;7.00;1.40;;;8.62;95.06;95304.38;647539;216;31545;-70
2021/06/02 05:01:12;;;;;;;6.35;5.60;;;7.20;1.40;;;8.92;93.18;95307.45;645895;216;31530;-70
2021/06/02 05:04:11;;;;;;;6.72;5.78;;;7.40;1.40;;;9.16;92.33;95310.81;645705;212;31539;-70
2021/06/02 05:07:11;;;;;;;6.50;5.90;;;7.50;1.40;;;9.26;91.85;95311.81;646622;216;31550;-72
2021/06/02 05:10:03;;;;;;;6.20;5.60;;;7.60;1.40;;;9.32;92.66;95311.67;645224;212;31697;-69
2021/06/02 05:13:09;;;;;;;6.12;5.60;;;7.80;1.40;;;9.50;90.13;95303.81;646829;212;31586;-71
2021/06/02 05:16:08;;;;;;;7.12;6.43;;;7.90;1.40;;;9.62;90.62;95308.41;636443;216;31736;-71
2021/06/02 05:19:17;;;;;;;6.70;6.10;;;8.10;1.40;;;9.81;89.36;95312.89;618299;222;43210;-69
2021/06/02 05:22:05;;;;;;;9.80;6.90;;;8.30;1.40;;;9.95;88.52;95310.03;647070;212;31569;-70
2021/06/02 05:28:06;;;;;;;7.00;6.30;;;8.90;1.40;;;10.47;84.18;95311.67;648206;212;31530;-69
2021/06/02 05:31:20;;;;;;;6.27;5.67;;;8.90;1.40;;;10.54;81.75;95317.84;645524;216;31588;-69
2021/06/02 05:36:29;;;;;;;5.97;5.47;;;9.40;1.40;;;10.87;80.03;95315.30;646157;212;42155;-68
2021/06/02 05:42:18;;;;;;;6.30;5.70;;;9.60;1.40;;;11.14;82.06;95322.34;647846;213;31600;-69
2021/06/02 05:51:08;;;;;;;5.50;4.90;;;10.10;1.40;;;11.35;77.20;95316.09;645728;212;31620;-69
2021/06/02 05:53:58;;;;;;;5.63;5.13;;;10.30;1.40;;;11.51;78.29;95317.93;646066;212;32606;-69
2021/06/02 05:57:19;;;;;;;5.70;5.20;;;10.40;1.40;;;11.53;77.88;95321.64;644969;212;32352;-70
2021/06/02 06:00:15;;;;;;;5.20;4.70;;;10.70;1.40;;;11.60;78.77;95320.27;646727;216;31707;-70
2021/06/02 06:03:27;;;;;;;5.20;4.70;;;10.70;1.40;;;11.90;78.96;95323.38;619109;226;31916;-69
2021/06/02 06:06:47;;;;;;;5.33;4.80;;;10.80;1.40;;;12.04;79.18;95322.17;619039;226;32267;-70
2021/06/02 06:09:51;;;;;;;5.65;4.80;;;11.10;1.40;;;12.43;77.97;95319.53;645515;213;35501;-71
2021/06/02 06:12:53;;;;;;;5.65;5.05;;;11.40;1.40;;;12.57;77.45;95316.56;645783;212;31622;-70
2021/06/02 06:16:06;;;;;;;7.13;5.47;;;11.50;1.40;;;12.75;75.83;95318.52;636404;216;31760;-73
2021/06/02 06:19:30;;;;;;;6.20;5.30;;;11.70;1.40;;;12.99;75.75;95323.91;646696;212;31677;-70
2021/06/02 06:27:35;;;;;;;5.22;4.72;;;12.10;1.40;;;13.53;73.09;95319.70;645568;216;31626;-69
2021/06/02 06:30:21;;;;;;;5.70;5.10;;;12.50;1.40;;;13.70;72.54;95323.76;646577;216;31572;-71
2021/06/02 06:35:51;;;;;;;5.72;4.60;;;12.70;1.40;;;14.01;67.94;95329.05;647516;216;31629;-70
2021/06/02 06:39:04;;;;;;;4.83;4.43;;;12.90;1.40;;;14.08;68.03;95331.24;647115;216;32299;-71
2021/06/02 06:41:45;;;;;;;5.12;4.72;;;13.00;1.40;;;14.35;68.36;95335.73;619588;226;31969;-69
2021/06/02 06:44:27;;;;;;;6.20;5.12;;;13.20;1.40;;;14.56;69.59;95334.45;645735;212;31578;-70
2021/06/02 06:47:09;;;;;;;5.33;4.37;;;13.30;1.40;;;14.81;69.11;95329.48;646377;212;31618;-70
2021/06/02 06:49:50;;;;;;;5.20;4.70;;;13.40;1.40;;;14.95;68.33;95333.91;647017;212;42197;-70
2021/06/02 06:52:32;;;;;;;5.10;4.30;;;13.60;1.40;;;15.01;67.06;95334.39;645593;216;31705;-69
2021/06/02 06:55:14;;;;;;;5.70;4.40;;;13.70;1.40;;;15.12;66.97;95334.97;646217;216;31611;-71
2021/06/02 06:57:56;;;;;;;6.87;4.63;;;13.80;1.40;;;15.21;67.43;95342.20;646942;212;31604;-70
2021/06/02 07:00:38;;;;;;;5.70;4.70;;;14.00;1.40;;;15.51;67.71;95338.30;647526;213;31613;-70
2021/06/02 07:03:20;;;;;;;5.57;4.17;;;14.00;1.40;;;15.55;67.06;95348.47;645478;216;31609;-70
2021/06/02 07:06:02;;;;;;;4.57;4.10;;;14.10;1.40;;;15.53;64.47;95347.30;631769;221;31783;-70
2021/06/02 07:08:44;;;;;;;8.30;4.97;;;14.20;1.40;;;15.82;65.77;95351.00;646559;212;31564;-71
2021/06/02 07:11:26;;;;;;;8.13;4.32;;;14.30;1.40;;;15.86;63.57;95356.50;646545;216;42280;-69
2021/06/02 07:16:42;;;;;;;5.35;4.55;;;14.70;1.40;;;16.24;63.74;95353.61;646854;212;35062;-70
2021/06/02 07:19:23;;;;;;;6.03;4.40;;;14.80;1.40;;;16.34;63.36;95357.14;619618;226;32115;-68
2021/06/02 07:22:05;;;;;;;6.85;4.47;;;15.00;1.40;;;16.34;63.84;95351.60;647109;216;33364;-69
2021/06/02 07:24:47;;;;;;;8.07;4.53;;;15.20;1.40;;;16.51;63.83;95351.14;646430;212;31526;-69
2021/06/02 07:27:28;;;;;;;8.52;5.20;;;15.20;1.40;;;16.61;62.17;95350.78;646275;216;42222;-69
2021/06/02 07:30:11;;;;;;;10.02;4.40;;;15.30;1.40;;;16.88;61.36;95351.37;645327;212;42562;-70
2021/06/02 07:32:52;;;;;;;5.93;4.20;;;15.40;1.40;;;16.78;60.04;95351.73;618595;222;31936;-70
2021/06/02 07:35:54;;;;;;;8.70;4.60;;;15.40;1.40;;;16.97;61.31;95347.09;619121;222;31953;-70
2021/06/02 07:38:36;;;;;;;7.90;4.10;;;15.80;1.40;;;17.20;61.20;95350.53;647342;212;42173;-70
2021/06/02 07:41:18;;;;;;;9.07;4.40;;;15.80;1.40;;;17.44;59.96;95343.41;646423;212;31569;-70
2021/06/02 07:43:59;;;;;;;7.50;3.90;;;15.90;1.40;;;17.56;60.10;95346.86;647089;216;31532;-70
2021/06/02 07:46:41;;;;;;;5.00;3.50;;;16.10;1.40;;;17.77;58.92;95348.28;645635;212;31564;-69
2021/06/02 07:49:23;;;;;;;4.43;3.40;;;16.40;1.40;;;17.62;57.75;95346.09;647448;216;31568;-70
2021/06/02 07:52:04;;;;;;;5.40;3.67;;;16.40;1.40;;;17.84;58.91;95347.02;630907;222;31805;-69
2021/06/02 07:54:46;;;;;;;3.58;3.20;;;16.70;1.40;;;17.99;58.31;95347.73;647285;216;31647;-70
2021/06/02 07:57:28;;;;;;;6.43;3.40;;;16.70;1.40;;;17.93;55.72;95349.83;646107;212;31606;-71
2021/06/02 08:00:10;;;;;;;4.60;3.50;;;16.60;1.40;;;17.96;56.13;95347.61;648364;212;32495;-70
2021/06/02 08:02:52;;;;;;;3.95;3.28;;;16.60;1.40;;;17.90;55.69;95346.36;618563;222;31954;-71
2021/06/02 08:05:34;;;;;;;3.60;3.30;;;16.60;1.40;;;18.17;56.60;95350.33;619563;222;43137;-71
2021/06/02 08:08:15;;;;;;;4.10;3.70;;;17.00;1.40;;;18.27;55.54;95353.33;646386;212;32115;-71
2021/06/02 08:10:57;;;;;;;3.87;3.40;;;17.10;1.40;;;18.48;54.48;95356.08;618672;226;32383;-71
2021/06/02 08:13:39;;;;;;;3.30;3.00;;;17.30;1.40;;;18.39;53.92;95359.09;646698;212;31562;-71
2021/06/02 08:16:21;;;;;;;3.40;3.10;;;17.30;1.40;;;18.57;55.43;95354.96;646041;212;31871;-70
2021/06/02 08:19:02;;;;;;;3.97;3.20;;;17.30;1.40;;;18.84;54.45;95357.23;646948;216;31749;-70
2021/06/02 08:21:44;;;;;;;5.30;3.58;;;17.40;1.40;;;18.68;54.45;95359.83;646352;212;31920;-70
2021/06/02 08:24:26;;;;;;;3.85;3.20;;;17.50;1.40;;;19.21;53.86;95361.90;648144;212;31705;-70
2021/06/02 08:27:11;;;;;;;4.97;3.30;;;18.00;1.40;;;19.23;53.51;95364.25;646676;216;31568;-69
2021/06/02 08:29:54;;;;;;;3.85;3.28;;;17.90;1.40;;;19.16;51.85;95366.08;646169;214;31906;-70
2021/06/02 08:32:38;;;;;;;3.70;3.40;;;17.90;1.40;;;19.57;54.13;95364.41;645966;216;31610;-71
2021/06/02 08:35:51;;;;;;;3.92;3.33;;;18.40;1.40;;;20.07;54.38;95363.03;646312;212;42782;-71
2021/06/02 08:38:32;;;;;;;4.40;3.70;;;18.90;1.40;;;20.22;55.47;95365.31;646291;212;31573;-70
2021/06/02 08:41:14;;;;;;;5.07;3.65;;;19.00;1.40;;;20.19;53.94;95368.64;618167;222;43411;-69
2021/06/02 08:43:59;;;;;;;4.20;3.30;;;19.00;1.40;;;20.56;55.39;95361.62;646560;216;31680;-71
2021/06/02 08:46:40;;;;;;;4.28;3.50;;;19.40;1.40;;;20.81;55.88;95364.81;619937;222;32012;-70
2021/06/02 08:49:22;;;;;;;6.20;3.53;;;19.80;1.40;;;20.44;53.52;95364.25;646386;212;31967;-69
2021/06/02 08:52:05;;;;;;;5.32;3.83;;;19.30;1.40;;;20.95;54.54;95370.16;647266;213;32133;-70
2021/06/02 08:54:46;;;;;;;5.60;3.50;;;19.60;1.40;;;21.38;51.20;95369.33;647820;216;31571;-70
2021/06/02 08:57:31;;;;;;;3.92;3.40;;;20.00;1.40;;;21.41;51.27;95369.25;647629;212;31749;-71
2021/06/02 09:00:14;;;;;;;3.50;3.20;;;20.00;1.40;;;21.99;52.23;95360.34;646139;212;31594;-70
2021/06/02 09:02:57;;;;;;;4.00;3.17;;;20.70;1.40;;;22.37;50.85;95362.56;619882;226;31974;-70
2021/06/02 09:05:37;;;;;;;3.25;2.95;;;21.00;1.40;;;22.50;47.63;95364.14;646292;212;31610;-69
2021/06/02 09:08:19;;;;;;;5.30;3.25;;;21.30;1.40;;;22.24;46.61;95374.01;646643;212;31597;-70
2021/06/02 09:11:19;;;;;;;3.03;2.80;;;20.80;1.40;;;22.47;45.36;95372.02;646729;212;32266;-71
2021/06/02 09:14:00;;;;;;;4.37;2.70;;;21.10;1.40;;;22.74;45.34;95368.41;647291;212;31669;-71
2021/06/02 09:16:42;;;;;;;3.28;2.90;;;21.20;1.40;;;22.81;45.29;95371.27;647112;212;41990;-70
2021/06/02 09:19:32;;;;;;;3.50;3.20;;;21.30;1.40;;;22.64;43.61;95371.07;647242;216;42274;-70
2021/06/02 09:22:16;;;;;;;3.60;3.30;;;21.00;1.40;;;23.08;43.25;95370.53;646963;212;31592;-70
2021/06/02 09:25:00;;;;;;;3.45;3.10;;;22.80;1.40;;;24.79;39.90;95373.48;645630;212;31568;-71
2021/06/02 09:27:49;;;;;;;3.08;2.72;;;24.60;1.40;;;26.71;37.75;95370.31;647453;212;31768;-71
2021/06/02 09:30:33;;;;;;;3.47;3.08;;;25.80;1.40;;;27.70;36.77;95370.97;618681;222;31923;-70
2021/06/02 09:35:51;;;;;;;2.80;2.60;;;25.50;1.40;;;28.51;35.59;95374.93;617987;222;42881;-71
2021/06/02 09:38:33;;;;;;;3.12;2.83;;;25.70;1.40;;;28.10;32.91;95378.63;646764;212;31723;-71
2021/06/02 09:43:52;;;;;;;7.37;3.03;;;25.50;1.40;;;28.59;34.28;95375.27;646056;212;31562;-71
2021/06/02 09:46:34;;;;;;;4.12;3.50;;;25.50;1.40;;;30.13;33.54;95372.87;646860;212;31593;-70
2021/06/02 09:49:16;;;;;;;3.53;3.22;;;26.50;1.40;;;29.39;32.84;95376.25;648075;212;31614;-71
2021/06/02 09:52:01;;;;;;;3.87;3.58;;;25.70;1.40;;;29.64;33.41;95378.96;647062;216;31541;-71
2021/06/02 09:54:42;;;;;;;4.53;3.12;;;25.50;1.40;;;31.48;35.89;95375.12;647430;212;31759;-70
2021/06/02 09:57:24;;;;;;;3.30;3.00;;;26.80;1.40;;;32.25;31.03;95384.55;646197;212;31609;-72
2021/06/02 10:00:08;;;;;;;4.18;2.70;;;27.20;1.40;;;32.43;31.56;95386.58;647055;212;31744;-71
2021/06/02 10:03:11;;;;;;;3.35;2.95;;;26.50;1.40;;;32.71;30.59;95385.57;646129;212;42209;-71
2021/06/02 10:05:54;;;;;;;3.40;3.10;;;26.70;1.40;;;32.03;29.17;95384.39;646227;216;31718;-71
2021/06/02 10:08:38;;;;;;;4.85;3.10;;;26.50;1.40;;;31.60;29.22;95385.98;647277;212;31596;-72
2021/06/02 10:11:26;;;;;;;3.55;3.25;;;26.30;1.40;;;33.19;30.15;95380.80;647211;212;31598;-71
2021/06/02 10:14:04;;;;;;;3.40;2.70;;;26.30;1.40;;;32.52;27.61;95383.70;644292;212;31931;-72
2021/06/02 10:16:49;;;;;;;2.95;2.25;;;26.80;1.40;;;34.35;29.15;95382.22;647784;212;31730;-71
2021/06/02 10:19:36;;;;;;;3.50;2.87;;;27.50;1.40;;;34.71;27.88;95380.64;646584;212;31714;-72
2021/06/02 10:22:27;;;;;;;5.70;4.00;;;28.10;1.40;;;33.37;29.55;95385.20;646446;212;31572;-71
2021/06/02 10:25:12;;;;;;;4.93;4.45;;;27.40;1.40;;;35.33;27.46;95386.16;646679;212;31638;-72
2021/06/02 10:27:54;;;;;;;4.30;3.65;;;27.50;1.40;;;35.47;28.97;95388.50;647595;212;32321;-72
2021/06/02 10:30:36;;;;;;;5.57;3.33;;;27.50;1.40;;;33.65;29.15;95388.33;619866;226;32675;-72
2021/06/02 10:35:51;;;;;;;4.93;3.03;;;27.20;1.40;;;35.19;29.79;95387.78;647335;212;31633;-72
2021/06/02 10:38:46;;;;;;;4.40;3.75;;;27.60;1.40;;;36.19;25.72;95378.31;647497;216;42228;-73
2021/06/02 10:41:33;;;;;;;3.33;3.08;;;27.90;1.40;;;36.69;24.98;95377.84;647600;216;31580;-71
2021/06/02 10:44:23;;;;;;;3.33;3.03;;;27.90;1.40;;;35.57;26.19;95387.50;647217;212;31653;-72
2021/06/02 10:47:04;;;;;;;4.80;2.80;;;27.70;1.40;;;37.12;26.59;95387.02;646717;216;31570;-72
2021/06/02 10:49:47;;;;;;;4.12;2.85;;;28.40;1.40;;;37.47;24.86;95389.41;618777;222;31877;-71
2021/06/02 10:52:34;;;;;;;2.70;2.50;;;28.40;1.40;;;38.64;25.19;95384.44;644988;216;31585;-74
2021/06/02 10:55:32;;;;;;;3.20;2.90;;;28.80;1.40;;;39.61;23.60;95381.70;619385;222;31949;-72
2021/06/02 10:58:39;;;;;;;2.85;2.65;;;29.40;1.40;;;37.31;24.36;95387.90;646502;212;31627;-74
2021/06/02 11:01:21;;;;;;;3.10;2.70;;;28.00;1.40;;;37.55;22.48;95388.30;646824;216;31702;-71
2021/06/02 11:04:12;;;;;;;3.42;2.50;;;28.70;1.40;;;38.36;22.92;95387.40;646034;212;31569;-76
2021/06/02 11:07:19;;;;;;;3.20;2.20;;;29.30;1.40;;;38.85;21.07;95391.83;646719;216;31535;-71
2021/06/02 11:10:12;;;;;;;4.80;2.10;;;28.60;1.40;;;38.42;21.69;95382.45;647196;212;31554;-71
2021/06/02 11:13:06;;;;;;;2.55;2.05;;;28.80;1.40;;;38.67;23.33;95384.83;648659;212;31570;-73
2021/06/02 11:15:48;;;;;;;2.40;2.20;;;29.00;1.40;;;38.27;19.37;95383.02;647294;212;31582;-72
2021/06/02 11:18:30;;;;;;;2.40;1.95;;;29.50;1.40;;;39.29;20.67;95381.38;618961;226;31898;-72
2021/06/02 11:21:14;;;;;;;2.25;2.05;;;29.60;1.40;;;38.31;20.97;95382.00;645493;216;31724;-74
2021/06/02 11:24:01;;;;;;;3.20;2.40;;;29.00;1.40;;;36.25;20.58;95385.72;615031;225;31931;-72
2021/06/02 11:26:43;;;;;;;2.35;1.87;;;28.20;1.40;;;36.80;21.68;95385.62;646422;212;31614;-72
2021/06/02 11:29:25;;;;;;;2.65;1.95;;;28.70;1.40;;;38.11;20.96;95380.02;647201;216;31891;-71
2021/06/02 11:32:16;;;;;;;2.22;2.03;;;29.00;1.40;;;40.47;19.94;95384.78;646379;213;31701;-72
2021/06/02 11:35:54;;;;;;;2.30;1.75;;;28.20;1.40;;;37.15;20.21;95382.34;646290;212;31559;-72
2021/06/02 11:38:38;;;;;;;2.28;2.00;;;28.50;1.40;;;37.69;20.08;95383.63;645737;212;31624;-73
2021/06/02 11:41:20;;;;;;;2.10;1.90;;;28.20;1.40;;;36.60;21.39;95379.45;647069;212;31627;-72
2021/06/02 11:44:05;;;;;;;2.00;1.80;;;28.20;1.40;;;37.21;22.82;95375.16;645662;213;31655;-71
2021/06/02 11:46:48;;;;;;;2.95;2.00;;;28.70;1.40;;;39.11;21.14;95379.04;641860;215;31601;-71
2021/06/02 11:49:33;;;;;;;2.45;1.70;;;29.80;1.40;;;38.44;20.65;95374.84;647317;213;31542;-71
2021/06/02 11:52:16;;;;;;;2.15;2.00;;;29.60;1.40;;;40.77;19.51;95376.13;619480;222;31942;-71
2021/06/02 11:54:59;;;;;;;2.53;1.70;;;30.40;1.40;;;39.46;21.72;95376.39;618833;222;32232;-72
2021/06/02 11:57:41;;;;;;;2.47;1.95;;;30.20;1.40;;;39.41;18.88;95381.37;646828;212;31629;-72
2021/06/02 12:00:23;;;;;;;1.98;1.65;;;29.80;1.40;;;38.92;18.69;95376.88;646502;212;31601;-72
2021/06/02 12:03:11;;;;;;;2.30;2.10;;;29.70;1.40;;;39.25;19.65;95376.63;646806;212;31613;-72
2021/06/02 12:05:53;;;;;;;3.00;2.20;;;29.50;1.40;;;39.25;18.37;95376.84;618915;226;31990;-72
2021/06/02 12:08:35;;;;;;;3.78;2.10;;;30.00;1.40;;;38.17;18.54;95378.48;645655;212;31715;-72
2021/06/02 12:11:17;;;;;;;2.25;2.10;;;30.20;1.40;;;39.07;19.33;95379.13;619683;226;31922;-70
2021/06/02 12:13:58;;;;;;;2.00;1.87;;;30.20;1.40;;;39.87;18.55;95372.98;645235;212;31934;-72
2021/06/02 12:16:40;;;;;;;2.30;1.90;;;29.30;1.40;;;40.29;18.89;95371.71;646011;212;42232;-71
2021/06/02 12:19:22;;;;;;;3.40;2.00;;;29.80;1.40;;;39.80;18.56;95376.02;619272;222;32148;-72
2021/06/02 12:22:11;;;;;;;2.20;2.00;;;29.70;1.40;;;39.53;17.50;95376.09;647306;216;32352;-72
2021/06/02 12:25:20;;;;;;;2.28;1.70;;;29.30;1.40;;;35.63;18.67;95380.36;644775;212;31560;-72
2021/06/02 12:28:06;;;;;;;1.73;1.50;;;28.80;1.40;;;36.75;19.52;95370.78;646709;216;31556;-71
2021/06/02 12:30:46;;;;;;;2.40;1.80;;;29.70;1.40;;;39.17;19.63;95367.77;647173;212;31769;-71
2021/06/02 12:35:51;;;;;;;2.15;2.00;;;30.30;1.40;;;37.47;18.97;95378.91;647167;212;42261;-71
2021/06/02 12:38:33;;;;;;;2.45;2.00;;;29.10;1.40;;;36.79;19.65;95375.19;646259;212;31524;-71
2021/06/02 12:41:17;;;;;;;2.00;1.67;;;29.60;1.40;;;37.60;19.87;95375.02;647119;216;42267;-72
2021/06/02 12:44:02;;;;;;;2.80;1.80;;;29.90;1.40;;;38.10;18.69;95374.25;646788;212;42315;-72
2021/06/02 12:46:54;;;;;;;2.97;1.60;;;30.20;1.40;;;38.34;19.26;95378.36;646682;212;42303;-72
2021/06/02 12:49:40;;;;;;;2.03;1.92;;;29.90;1.40;;;36.07;19.48;95381.62;647834;216;42841;-72
2021/06/02 12:52:21;;;;;;;2.28;2.03;;;28.80;1.40;;;38.81;19.63;95381.17;648336;216;33713;-73
2021/06/02 12:55:08;;;;;;;2.80;2.10;;;29.00;1.40;;;38.04;19.75;95377.55;646420;216;31587;-73
2021/06/02 13:00:33;;;;;;;1.95;1.80;;;29.30;1.40;;;37.32;19.37;95382.41;647610;212;31630;-72
2021/06/02 13:03:15;;;;;;;2.97;2.03;;;29.40;1.40;;;38.82;19.20;95371.48;647554;216;31651;-71
2021/06/02 13:05:57;;;;;;;2.83;1.90;;;29.70;1.40;;;39.20;19.21;95376.34;646845;216;31578;-71
2021/06/02 13:08:39;;;;;;;1.85;1.70;;;30.00;1.40;;;39.54;20.05;95381.48;647725;216;32173;-71
2021/06/02 13:11:28;;;;;;;2.60;2.10;;;30.40;1.40;;;39.04;19.61;95379.53;619434;222;32599;-72
2021/06/02 13:14:09;;;;;;;2.50;1.80;;;29.90;1.40;;;40.01;20.05;95377.23;617565;222;32076;-71
2021/06/02 13:16:53;;;;;;;3.20;2.40;;;29.90;1.40;;;37.29;18.69;95381.33;648193;212;31712;-72
2021/06/02 13:19:41;;;;;;;2.30;2.10;;;29.70;1.40;;;37.02;20.20;95382.63;653707;212;23491;-72
2021/06/02 13:25:01;;;;;;;1.90;1.80;;;30.60;1.40;;;37.52;19.17;95380.37;645670;212;31627;-71
2021/06/02 13:27:46;;;;;;;2.05;1.85;;;29.70;1.40;;;39.23;20.78;95382.91;619963;226;31879;-72
2021/06/02 13:30:37;;;;;;;2.70;1.80;;;30.00;1.40;;;39.07;18.29;95384.28;646763;212;31623;-73